createdAt,value
2023-01-17T00:02:29.119Z,97.49
2023-01-17T00:05:36.788Z,97.59
2023-01-17T00:08:44.519Z,97.80
2023-01-17T00:11:52.760Z,98.11
2023-01-17T00:15:00.625Z,98.42
2023-01-17T00:18:08.302Z,98.73
2023-01-17T00:21:16.269Z,99.04
2023-01-17T00:24:23.564Z,99.25
2023-01-17T00:27:31.489Z,99.56
2023-01-17T00:30:39.553Z,99.77
2023-01-17T00:33:46.963Z,99.99
2023-01-17T00:36:55.059Z,99.99
2023-01-17T00:40:02.730Z,99.99
2023-01-17T00:43:10.382Z,99.99
2023-01-17T00:46:18.275Z,99.99
2023-01-17T00:49:26.396Z,99.99
2023-01-17T00:52:34.515Z,99.99
2023-01-17T00:55:42.012Z,99.99
2023-01-17T00:58:50.348Z,99.99
2023-01-17T01:01:58.806Z,99.99
2023-01-17T01:05:06.295Z,99.99
2023-01-17T01:08:14.404Z,99.99
2023-01-17T01:11:22.668Z,99.99
2023-01-17T01:14:30.030Z,99.99
2023-01-17T01:17:38.399Z,99.99
2023-01-17T01:20:46.298Z,99.99
2023-01-17T01:23:54.165Z,99.99
2023-01-17T01:27:02.315Z,99.99
2023-01-17T01:30:10.103Z,99.99
2023-01-17T01:33:17.846Z,99.99
2023-01-17T01:36:25.862Z,99.99
2023-01-17T01:39:33.597Z,99.99
2023-01-17T01:42:41.344Z,99.99
2023-01-17T01:45:49.557Z,99.99
2023-01-17T01:48:57.244Z,99.99
2023-01-17T01:52:05.064Z,99.99
2023-01-17T01:55:12.770Z,99.99
2023-01-17T01:58:20.913Z,99.99
2023-01-17T02:01:28.842Z,99.98
2023-01-17T02:04:36.688Z,99.77
2023-01-17T02:07:44.896Z,98.94
2023-01-17T02:10:52.670Z,98.63
2023-01-17T02:14:00.087Z,98.21
2023-01-17T02:17:08.100Z,98.00
2023-01-17T02:20:15.554Z,97.69
2023-01-17T02:23:23.851Z,97.28
2023-01-17T02:26:32.251Z,96.76
2023-01-17T02:29:39.815Z,96.66
2023-01-17T02:32:47.907Z,96.34
2023-01-17T02:35:55.322Z,96.45
2023-01-17T02:39:03.413Z,96.45
2023-01-17T02:42:11.510Z,96.66
2023-01-17T02:45:19.227Z,96.86
2023-01-17T02:48:26.958Z,96.97
2023-01-17T02:51:35.190Z,97.17
2023-01-17T02:54:42.670Z,97.02
2023-01-17T02:57:50.503Z,96.70
2023-01-17T03:00:58.400Z,96.70
2023-01-17T03:04:06.556Z,96.91
2023-01-17T03:07:14.254Z,97.12
2023-01-17T03:10:22.164Z,97.12
2023-01-17T03:13:30.343Z,97.22
2023-01-17T03:16:37.793Z,97.43
2023-01-17T03:19:46.118Z,97.85
2023-01-17T03:22:54.195Z,97.95
2023-01-17T03:26:01.657Z,98.16
2023-01-17T03:29:09.497Z,97.99
2023-01-17T03:32:17.318Z,97.78
2023-01-17T03:35:25.499Z,97.27
2023-01-17T03:38:33.129Z,97.06
2023-01-17T03:41:40.878Z,96.23
2023-01-17T03:44:49.507Z,96.08
2023-01-17T03:47:57.236Z,96.08
2023-01-17T03:51:04.894Z,95.98
2023-01-17T03:54:12.887Z,95.98
2023-01-17T03:57:20.246Z,95.77
2023-01-17T04:00:28.304Z,95.98
2023-01-17T04:03:36.353Z,95.46
2023-01-17T04:06:43.723Z,95.77
2023-01-17T04:09:51.925Z,95.67
2023-01-17T04:12:59.815Z,95.87
2023-01-17T04:16:07.315Z,95.56
2023-01-17T04:19:15.429Z,95.46
2023-01-17T04:22:23.174Z,95.15
2023-01-17T04:25:31.141Z,94.94
2023-01-17T04:28:39.521Z,94.73
2023-01-17T04:31:47.205Z,94.84
2023-01-17T04:34:54.898Z,94.94
2023-01-17T04:38:02.917Z,94.53
2023-01-17T04:41:10.580Z,94.73
2023-01-17T04:44:18.003Z,94.53
2023-01-17T04:47:26.197Z,94.84
2023-01-17T04:50:33.876Z,94.84
2023-01-17T04:53:41.940Z,94.73
2023-01-17T04:56:49.812Z,94.94
2023-01-17T04:59:58.047Z,94.94
2023-01-17T05:03:05.790Z,95.04
2023-01-17T05:06:13.511Z,95.40
2023-01-17T05:09:21.530Z,95.61
2023-01-17T05:12:28.842Z,95.61
2023-01-17T05:15:36.925Z,95.29
2023-01-17T05:18:45.359Z,94.98
2023-01-17T05:21:52.881Z,94.57
2023-01-17T05:25:01.038Z,94.36
2023-01-17T05:28:09.073Z,94.05
2023-01-17T05:31:16.699Z,93.95
2023-01-17T05:34:24.899Z,94.26
2023-01-17T05:37:32.937Z,94.57
2023-01-17T05:40:40.738Z,94.67
2023-01-17T05:43:48.845Z,94.67
2023-01-17T05:46:56.425Z,94.88
2023-01-17T05:50:04.116Z,94.67
2023-01-17T05:53:12.533Z,94.67
2023-01-17T05:56:20.263Z,94.88
2023-01-17T05:59:37.129Z,94.98
2023-01-17T06:02:33.145Z,95.61
2023-01-17T06:05:41.149Z,96.33
2023-01-17T06:08:48.966Z,96.75
2023-01-17T06:11:56.780Z,97.06
2023-01-17T06:15:04.559Z,97.83
2023-01-17T06:18:12.318Z,98.35
2023-01-17T06:21:20.147Z,98.29
2023-01-17T06:24:27.871Z,99.02
2023-01-17T06:27:35.809Z,99.27
2023-01-17T06:30:43.534Z,99.27
2023-01-17T06:33:51.909Z,99.58
2023-01-17T06:36:59.369Z,99.52
2023-01-17T06:40:07.494Z,99.73
2023-01-17T06:43:16.053Z,99.99
2023-01-17T06:46:23.566Z,99.99
2023-01-17T06:49:31.965Z,99.99
2023-01-17T06:52:39.735Z,99.99
2023-01-17T06:55:47.724Z,99.99
2023-01-17T06:58:55.944Z,99.99
2023-01-17T07:02:03.739Z,99.99
2023-01-17T07:05:11.556Z,99.99
2023-01-17T07:08:19.563Z,99.99
2023-01-17T07:11:27.384Z,99.99
2023-01-17T07:14:35.178Z,99.99
2023-01-17T07:17:42.949Z,99.99
2023-01-17T07:20:51.048Z,99.99
2023-01-17T07:23:58.868Z,99.99
2023-01-17T07:27:06.489Z,99.99
2023-01-17T07:30:14.604Z,99.99
2023-01-17T07:33:22.400Z,99.99
2023-01-17T07:36:30.156Z,99.99
2023-01-17T07:39:38.576Z,99.99
2023-01-17T07:42:45.959Z,99.99
2023-01-17T07:45:54.528Z,99.99
2023-01-17T07:49:02.604Z,99.99
2023-01-17T07:52:10.173Z,99.99
2023-01-17T07:55:18.232Z,99.99
2023-01-17T07:58:26.322Z,99.99
2023-01-17T08:01:33.898Z,99.99
2023-01-17T08:04:41.859Z,99.99
2023-01-17T08:07:49.902Z,99.99
2023-01-17T08:10:57.337Z,99.99
2023-01-17T08:14:05.164Z,99.99
2023-01-17T08:17:13.029Z,99.99
2023-01-17T08:20:20.676Z,99.99
2023-01-17T08:23:28.322Z,99.99
2023-01-17T08:26:36.304Z,99.99
2023-01-17T08:29:44.589Z,99.99
2023-01-17T08:32:51.994Z,99.99
2023-01-17T08:36:00.111Z,99.99
2023-01-17T08:39:08.461Z,99.99
2023-01-17T08:42:15.887Z,99.99
2023-01-17T08:45:24.197Z,99.99
2023-01-17T08:48:32.447Z,99.99
2023-01-17T08:51:39.968Z,99.93
2023-01-17T08:54:48.073Z,99.82
2023-01-17T08:57:56.511Z,99.62
2023-01-17T09:01:04.005Z,99.46
2023-01-17T09:04:12.626Z,99.05
2023-01-17T09:07:20.449Z,98.63
2023-01-17T09:10:28.327Z,98.32
2023-01-17T09:13:36.322Z,97.91
2023-01-17T09:16:44.106Z,97.65
2023-01-17T09:19:52.144Z,97.03
2023-01-17T09:23:00.744Z,97.03
2023-01-17T09:26:08.144Z,96.47
2023-01-17T09:29:16.524Z,95.84
2023-01-17T09:32:24.845Z,95.11
2023-01-17T09:35:32.305Z,95.21
2023-01-17T09:38:41.137Z,94.70
2023-01-17T09:41:48.684Z,93.35
2023-01-17T09:44:56.902Z,93.24
2023-01-17T09:48:05.425Z,93.45
2023-01-17T09:51:12.791Z,93.62
2023-01-17T09:54:21.150Z,93.20
2023-01-17T09:57:29.097Z,92.57
2023-01-17T10:00:37.075Z,92.68
2023-01-17T10:03:46.687Z,91.74
2023-01-17T10:06:54.192Z,91.22
2023-01-17T10:10:02.981Z,91.02
2023-01-17T10:13:11.168Z,91.33
2023-01-17T10:16:19.214Z,89.98
2023-01-17T10:19:27.029Z,89.87
2023-01-17T10:22:35.287Z,89.77
2023-01-17T10:25:42.598Z,88.62
2023-01-17T10:28:51.869Z,89.04
2023-01-17T10:31:59.273Z,89.00
2023-01-17T10:35:07.889Z,89.73
2023-01-17T10:38:15.826Z,88.17
2023-01-17T10:41:23.453Z,88.02
2023-01-17T10:44:31.374Z,87.19
2023-01-17T10:47:39.607Z,87.61
2023-01-17T10:50:47.424Z,86.99
2023-01-17T10:53:55.453Z,86.78
2023-01-17T10:57:03.218Z,85.91
2023-01-17T11:00:11.035Z,85.60
2023-01-17T11:03:19.363Z,85.60
2023-01-17T11:06:26.757Z,85.81
2023-01-17T11:09:35.011Z,83.94
2023-01-17T11:12:43.322Z,83.94
2023-01-17T11:15:50.896Z,82.90
2023-01-17T11:18:59.307Z,83.84
2023-01-17T11:22:07.083Z,84.36
2023-01-17T11:25:14.832Z,83.73
2023-01-17T11:28:22.441Z,82.07
2023-01-17T11:31:30.553Z,82.70
2023-01-17T11:34:38.210Z,83.17
2023-01-17T11:37:45.693Z,83.80
2023-01-17T11:40:53.977Z,82.45
2023-01-17T11:44:01.339Z,82.97
2023-01-17T11:47:09.420Z,81.51
2023-01-17T11:50:17.520Z,81.30
2023-01-17T11:53:24.907Z,80.99
2023-01-17T11:56:32.954Z,81.48
2023-01-17T11:59:40.957Z,79.24
2023-01-17T12:02:48.320Z,79.75
2023-01-17T12:05:56.486Z,79.24
2023-01-17T12:09:04.301Z,77.89
2023-01-17T12:12:12.009Z,78.92
2023-01-17T12:15:20.497Z,78.51
2023-01-17T12:18:28.096Z,79.85
2023-01-17T12:21:35.832Z,78.30
2023-01-17T12:24:43.820Z,78.20
2023-01-17T12:27:51.456Z,78.27
2023-01-17T12:30:59.392Z,78.68
2023-01-17T12:34:08.140Z,77.64
2023-01-17T12:37:16.381Z,77.64
2023-01-17T12:40:24.313Z,78.68
2023-01-17T12:43:32.201Z,78.75
2023-01-17T12:46:40.362Z,77.40
2023-01-17T12:49:48.059Z,76.57
2023-01-17T12:52:55.430Z,77.81
2023-01-17T12:56:03.726Z,77.29
2023-01-17T12:59:11.479Z,77.09
2023-01-17T13:02:19.396Z,77.44
2023-01-17T13:05:27.751Z,78.16
2023-01-17T13:08:35.766Z,77.95
2023-01-17T13:11:43.663Z,78.06
2023-01-17T13:14:51.725Z,77.06
2023-01-17T13:17:59.563Z,77.16
2023-01-17T13:21:07.283Z,76.85
2023-01-17T13:24:14.909Z,77.06
2023-01-17T13:27:22.931Z,78.20
2023-01-17T13:30:30.666Z,79.34
2023-01-17T13:33:38.425Z,78.09
2023-01-17T13:36:46.631Z,78.82
2023-01-17T13:39:54.566Z,79.03
2023-01-17T13:43:02.400Z,79.13
2023-01-17T13:46:10.504Z,77.16
2023-01-17T13:49:17.884Z,76.85
2023-01-17T13:52:26.351Z,77.99
2023-01-17T13:55:34.596Z,77.89
2023-01-17T13:58:41.948Z,76.85
2023-01-17T14:01:50.073Z,76.23
2023-01-17T14:04:58.367Z,77.16
2023-01-17T14:08:05.756Z,77.16
2023-01-17T14:11:14.221Z,76.33
2023-01-17T14:14:21.990Z,76.43
2023-01-17T14:17:30.212Z,76.33
2023-01-17T14:20:38.063Z,75.54
2023-01-17T14:23:45.825Z,75.54
2023-01-17T14:26:53.472Z,76.40
2023-01-17T14:30:01.638Z,76.02
2023-01-17T14:33:09.457Z,76.23
2023-01-17T14:36:17.637Z,76.43
2023-01-17T14:39:25.076Z,76.16
2023-01-17T14:42:33.228Z,76.68
2023-01-17T14:45:41.581Z,76.78
2023-01-17T14:48:48.887Z,76.37
2023-01-17T14:51:56.996Z,76.57
2023-01-17T14:55:04.416Z,76.68
2023-01-17T14:58:11.860Z,77.20
2023-01-17T15:01:20.066Z,77.61
2023-01-17T15:04:27.862Z,77.13
2023-01-17T15:07:35.479Z,78.27
2023-01-17T15:10:43.611Z,78.89
2023-01-17T15:13:50.871Z,79.00
2023-01-17T15:16:59.003Z,79.35
2023-01-17T15:20:07.422Z,80.39
2023-01-17T15:23:14.920Z,80.91
2023-01-17T15:26:23.006Z,82.20
2023-01-17T15:29:31.151Z,83.48
2023-01-17T15:32:39.074Z,83.69
2023-01-17T15:35:46.799Z,84.45
2023-01-17T15:38:54.723Z,84.08
2023-01-17T15:42:03.003Z,84.50
2023-01-17T15:45:11.280Z,84.95
2023-01-17T15:48:19.182Z,85.89
2023-01-17T15:51:27.620Z,85.99
2023-01-17T15:54:35.213Z,86.76
2023-01-17T15:57:43.643Z,87.18
2023-01-17T16:00:52.159Z,87.63
2023-01-17T16:03:59.760Z,87.95
2023-01-17T16:07:07.676Z,88.51
2023-01-17T16:10:16.108Z,88.72
2023-01-17T16:13:23.737Z,88.72
2023-01-17T16:16:32.132Z,88.65
2023-01-17T16:19:40.366Z,89.07
2023-01-17T16:22:48.240Z,89.49
2023-01-17T16:25:56.267Z,88.80
2023-01-17T16:29:04.003Z,89.11
2023-01-17T16:32:11.839Z,89.64
2023-01-17T16:35:20.247Z,90.16
2023-01-17T16:38:28.296Z,90.26
2023-01-17T16:41:36.280Z,90.58
2023-01-17T16:44:44.005Z,90.68
2023-01-17T16:47:52.338Z,90.58
2023-01-17T16:51:00.373Z,90.58
2023-01-17T16:54:08.113Z,90.72
2023-01-17T16:57:16.713Z,90.83
2023-01-17T17:00:24.559Z,91.35
2023-01-17T17:03:32.209Z,91.87
2023-01-17T17:06:40.123Z,92.13
2023-01-17T17:09:48.279Z,92.13
2023-01-17T17:12:56.354Z,92.27
2023-01-17T17:16:04.747Z,92.58
2023-01-17T17:19:12.545Z,92.79
2023-01-17T17:22:20.559Z,92.79
2023-01-17T17:25:28.693Z,93.01
2023-01-17T17:28:36.420Z,92.90
2023-01-17T17:31:44.295Z,92.90
2023-01-17T17:34:52.419Z,93.57
2023-01-17T17:38:00.677Z,94.09
2023-01-17T17:41:09.180Z,94.09
2023-01-17T17:44:17.242Z,93.84
2023-01-17T17:47:25.617Z,93.99
2023-01-17T17:50:33.790Z,93.88
2023-01-17T17:53:41.521Z,93.99
2023-01-17T17:56:50.716Z,94.20
2023-01-17T17:59:58.827Z,94.51
2023-01-17T18:03:07.459Z,94.72
2023-01-17T18:06:15.829Z,95.07
2023-01-17T18:09:23.343Z,95.18
2023-01-17T18:12:31.782Z,95.29
2023-01-17T18:15:40.194Z,95.39
2023-01-17T18:18:47.900Z,95.39
2023-01-17T18:21:56.559Z,95.54
2023-01-17T18:25:04.515Z,95.75
2023-01-17T18:28:11.883Z,95.86
2023-01-17T18:31:20.091Z,96.06
2023-01-17T18:34:27.930Z,96.31
2023-01-17T18:37:35.972Z,96.42
2023-01-17T18:40:43.801Z,96.63
2023-01-17T18:43:52.032Z,96.63
2023-01-17T18:47:00.127Z,96.73
2023-01-17T18:50:07.508Z,96.84
2023-01-17T18:53:15.773Z,96.84
2023-01-17T18:56:23.944Z,96.73
2023-01-17T18:59:31.420Z,96.78
2023-01-17T19:02:39.781Z,96.78
2023-01-17T19:05:47.570Z,96.89
2023-01-17T19:08:55.437Z,97.09
2023-01-17T19:12:03.825Z,97.52
2023-01-17T19:15:11.938Z,97.83
2023-01-17T19:18:19.896Z,97.72
2023-01-17T19:21:28.379Z,97.52
2023-01-17T19:24:36.359Z,97.52
2023-01-17T19:27:44.347Z,97.52
2023-01-17T19:30:52.308Z,97.52
2023-01-17T19:34:00.503Z,97.52
2023-01-17T19:37:08.265Z,97.52
2023-01-17T19:40:16.023Z,97.56
2023-01-17T19:43:24.376Z,97.77
2023-01-17T19:46:32.472Z,97.77
2023-01-17T19:49:40.466Z,97.87
2023-01-17T19:52:48.753Z,97.98
2023-01-17T19:55:56.336Z,97.98
2023-01-17T19:59:04.699Z,97.87
2023-01-17T20:02:13.080Z,97.87
2023-01-17T20:05:20.431Z,97.92
2023-01-17T20:08:28.689Z,98.02
2023-01-17T20:11:36.744Z,97.98
2023-01-17T20:14:44.170Z,97.98
2023-01-17T20:17:52.224Z,97.77
2023-01-17T20:21:00.211Z,97.66
2023-01-17T20:24:07.488Z,97.66
2023-01-17T20:27:15.728Z,97.71
2023-01-17T20:30:23.952Z,97.71
2023-01-17T20:33:31.403Z,97.81
2023-01-17T20:36:39.572Z,97.71
2023-01-17T20:39:47.413Z,97.81
2023-01-17T20:42:55.384Z,97.81
2023-01-17T20:46:03.524Z,97.60
2023-01-17T20:49:11.368Z,97.50
2023-01-17T20:52:19.106Z,97.39
2023-01-17T20:55:27.213Z,98.07
2023-01-17T20:58:35.106Z,98.23
2023-01-17T21:01:43.127Z,98.17
2023-01-17T21:04:50.946Z,98.28
2023-01-17T21:07:59.371Z,98.38
2023-01-17T21:11:07.285Z,98.38
2023-01-17T21:14:15.044Z,98.28
2023-01-17T21:17:23.060Z,98.28
2023-01-17T21:20:30.736Z,98.07
2023-01-17T21:23:38.483Z,97.96
2023-01-17T21:26:46.648Z,98.07
2023-01-17T21:29:54.427Z,98.07
2023-01-17T21:33:02.314Z,98.17
2023-01-17T21:36:10.327Z,98.28
2023-01-17T21:39:17.678Z,98.32
2023-01-17T21:42:25.585Z,98.43
2023-01-17T21:45:33.644Z,98.32
2023-01-17T21:48:40.987Z,98.53
2023-01-17T21:51:49.069Z,98.43
2023-01-17T21:54:57.109Z,98.43
2023-01-17T21:58:04.627Z,98.53
2023-01-17T22:01:13.044Z,98.53
2023-01-17T22:04:21.038Z,98.53
2023-01-17T22:07:29.199Z,98.53
2023-01-17T22:10:37.064Z,98.53
2023-01-17T22:13:45.149Z,98.53
2023-01-17T22:16:52.846Z,98.64
2023-01-17T22:20:00.841Z,98.64
2023-01-17T22:23:08.600Z,98.59
2023-01-17T22:26:16.724Z,98.49
2023-01-17T22:29:24.131Z,98.17
2023-01-17T22:32:32.280Z,98.07
2023-01-17T22:35:40.531Z,97.96
2023-01-17T22:38:47.932Z,97.75
2023-01-17T22:41:56.091Z,97.64
2023-01-17T22:45:03.683Z,97.64
2023-01-17T22:48:11.573Z,97.64
2023-01-17T22:51:19.353Z,97.64
2023-01-17T22:54:27.101Z,97.64
2023-01-17T22:57:34.941Z,97.86
2023-01-17T23:00:42.853Z,97.86
2023-01-17T23:03:50.583Z,97.86
2023-01-17T23:06:57.624Z,97.75
2023-01-17T23:10:04.738Z,97.64
2023-01-17T23:13:12.167Z,97.64
2023-01-17T23:16:18.901Z,97.69
2023-01-17T23:19:26.501Z,97.58
2023-01-17T23:22:33.857Z,97.69
2023-01-17T23:25:40.929Z,97.80
2023-01-17T23:28:47.600Z,97.90
2023-01-17T23:31:55.027Z,98.00
2023-01-17T23:35:02.080Z,98.00
2023-01-17T23:38:09.121Z,98.00
2023-01-17T23:41:16.579Z,98.05
2023-01-17T23:44:23.882Z,97.94
2023-01-17T23:47:30.959Z,98.10
2023-01-17T23:50:37.969Z,98.47
2023-01-17T23:53:45.475Z,98.52
2023-01-17T23:56:52.410Z,98.41
2023-01-17T23:59:59.517Z,98.41
